Time;durP1;ratioP1;P1;durP2;ratioP2;P2;SDS_P1;SDS_P2;PMS_P1;PMS_P2;Temp;Humidity;BMP_temperature;BMP_pressure;BME280_temperature;BME280_humidity;BME280_pressure;Samples;Min_cycle;Max_cycle;Signal;HPM_P1;HPM_P2
2021/05/23 00:00:11;;;;;;;17.83;15.07;;;;;;;;;;2063434;28;20639;-58
2021/05/23 00:01:12;;;;;;;19.98;15.27;;;;;;;;;;2064088;28;20595;-60
2021/05/23 00:02:12;;;;;;;19.23;14.73;;;;;;;;;;2064819;28;20209;-58
2021/05/23 00:03:14;;;;;;;19.40;14.73;;;;;;;;;;2057853;28;20800;-59
2021/05/23 00:04:14;;;;;;;17.75;14.38;;;;;;;;;;2064480;28;20604;-59
2021/05/23 00:05:16;;;;;;;19.80;14.80;;;;;;;;;;2065175;28;20188;-59
2021/05/23 00:06:17;;;;;;;19.42;14.63;;;;;;;;;;2064390;28;20170;-60
2021/05/23 00:07:18;;;;;;;17.20;15.23;;;;;;;;;;2065202;28;20213;-59
2021/05/23 00:08:19;;;;;;;22.02;15.85;;;;;;;;;;2064047;28;20193;-58
2021/05/23 00:09:19;;;;;;;19.48;16.25;;;;;;;;;;2064541;28;20257;-57
2021/05/23 00:10:20;;;;;;;18.98;15.38;;;;;;;;;;2063612;28;20192;-54
2021/05/23 00:11:21;;;;;;;22.15;16.50;;;;;;;;;;2064873;28;20193;-59
2021/05/23 00:12:22;;;;;;;22.85;17.10;;;;;;;;;;2064657;28;20187;-58
2021/05/23 00:13:23;;;;;;;24.25;17.17;;;;;;;;;;2064998;28;20676;-59
2021/05/23 00:14:23;;;;;;;23.95;17.38;;;;;;;;;;2063182;28;20265;-60
2021/05/23 00:15:26;;;;;;;23.60;16.35;;;;;;;;;;2064793;28;20165;-58
2021/05/23 00:16:27;;;;;;;20.08;15.60;;;;;;;;;;2065569;28;20162;-59
2021/05/23 00:17:27;;;;;;;19.35;17.25;;;;;;;;;;2064932;28;20174;-56
2021/05/23 00:18:29;;;;;;;22.67;17.05;;;;;;;;;;2065155;28;20158;-57
2021/05/23 00:19:29;;;;;;;21.40;16.95;;;;;;;;;;2055223;28;20561;-52
2021/05/23 00:20:30;;;;;;;21.80;16.60;;;;;;;;;;2057462;28;20209;-59
2021/05/23 00:21:30;;;;;;;23.50;16.40;;;;;;;;;;2055371;28;20683;-59
2021/05/23 00:22:30;;;;;;;22.67;16.75;;;;;;;;;;2056914;28;20171;-59
2021/05/23 00:23:31;;;;;;;21.35;16.30;;;;;;;;;;2059517;28;20232;-60
2021/05/23 00:24:31;;;;;;;18.67;16.50;;;;;;;;;;2063603;28;20236;-58
2021/05/23 00:25:32;;;;;;;20.17;16.45;;;;;;;;;;2065527;28;20201;-56
2021/05/23 00:26:32;;;;;;;20.50;16.60;;;;;;;;;;2064909;28;20166;-59
2021/05/23 00:27:33;;;;;;;23.63;17.20;;;;;;;;;;2054372;28;20659;-58
2021/05/23 00:28:35;;;;;;;20.25;16.40;;;;;;;;;;2056189;28;20174;-57
2021/05/23 00:29:35;;;;;;;20.85;16.83;;;;;;;;;;2062752;28;20269;-61
2021/05/23 00:30:36;;;;;;;22.30;18.10;;;;;;;;;;2058115;28;20177;-60
2021/05/23 00:31:36;;;;;;;23.65;17.63;;;;;;;;;;2052610;28;20202;-58
2021/05/23 00:32:36;;;;;;;21.27;17.13;;;;;;;;;;2064312;28;20161;-60
2021/05/23 00:33:37;;;;;;;21.08;16.80;;;;;;;;;;2061280;28;20276;-61
2021/05/23 00:34:37;;;;;;;22.63;17.30;;;;;;;;;;2064305;28;20180;-61
2021/05/23 00:35:37;;;;;;;19.73;16.17;;;;;;;;;;2061374;28;20198;-61
2021/05/23 00:36:39;;;;;;;21.23;16.17;;;;;;;;;;2056362;28;20189;-60
2021/05/23 00:37:39;;;;;;;23.45;17.30;;;;;;;;;;2055897;28;20177;-61
2021/05/23 00:38:40;;;;;;;20.58;16.23;;;;;;;;;;2064617;28;20501;-57
2021/05/23 00:39:40;;;;;;;20.55;16.27;;;;;;;;;;2060757;28;20185;-60
2021/05/23 00:40:40;;;;;;;20.85;16.70;;;;;;;;;;2064901;28;20227;-57
2021/05/23 00:41:41;;;;;;;20.83;16.08;;;;;;;;;;2064343;28;20177;-60
2021/05/23 00:42:41;;;;;;;19.70;16.13;;;;;;;;;;2064292;28;20594;-59
2021/05/23 00:43:41;;;;;;;19.13;15.85;;;;;;;;;;2059805;28;20212;-61
2021/05/23 00:44:42;;;;;;;21.95;15.55;;;;;;;;;;2063875;28;20186;-58
2021/05/23 00:45:42;;;;;;;23.58;16.20;;;;;;;;;;2056233;28;20174;-58
2021/05/23 00:46:42;;;;;;;20.58;16.25;;;;;;;;;;2056024;28;20198;-59
2021/05/23 00:47:43;;;;;;;22.83;15.73;;;;;;;;;;2064612;28;20212;-61
2021/05/23 00:48:43;;;;;;;20.85;16.08;;;;;;;;;;2064155;28;20166;-61
2021/05/23 00:49:44;;;;;;;19.10;14.88;;;;;;;;;;2064745;28;20664;-61
2021/05/23 00:50:44;;;;;;;17.92;14.88;;;;;;;;;;2064749;28;20201;-61
2021/05/23 00:51:45;;;;;;;21.35;16.15;;;;;;;;;;2063626;28;20638;-60
2021/05/23 00:52:45;;;;;;;18.90;15.30;;;;;;;;;;2061593;28;20201;-60
2021/05/23 00:53:45;;;;;;;18.50;14.85;;;;;;;;;;2065322;28;20278;-61
2021/05/23 00:54:46;;;;;;;21.42;14.75;;;;;;;;;;2052288;28;20208;-60
2021/05/23 00:55:46;;;;;;;18.02;14.73;;;;;;;;;;2056512;28;20258;-60
2021/05/23 00:56:46;;;;;;;19.77;15.05;;;;;;;;;;2064181;28;20244;-59
2021/05/23 00:57:47;;;;;;;20.27;15.52;;;;;;;;;;2064161;28;20182;-60
2021/05/23 00:58:48;;;;;;;21.85;16.52;;;;;;;;;;2061216;28;20174;-61
2021/05/23 00:59:49;;;;;;;21.40;13.73;;;;;;;;;;2065313;28;20180;-60
2021/05/23 01:00:55;;;;;;;21.58;15.98;;;;;;;;;;2055464;28;20617;-61
2021/05/23 01:01:55;;;;;;;22.08;15.82;;;;;;;;;;2057002;28;20190;-59
2021/05/23 01:02:58;;;;;;;17.25;13.38;;;;;;;;;;2060277;28;20186;-59
2021/05/23 01:04:02;;;;;;;17.75;13.75;;;;;;;;;;2063193;28;20191;-61
2021/05/23 01:05:02;;;;;;;17.95;15.63;;;;;;;;;;2065504;28;20173;-59
2021/05/23 01:06:06;;;;;;;20.73;14.98;;;;;;;;;;2056702;28;20213;-56
2021/05/23 01:07:07;;;;;;;22.02;15.30;;;;;;;;;;2056888;28;20217;-57
2021/05/23 01:08:07;;;;;;;21.92;14.93;;;;;;;;;;2064231;28;20212;-60
2021/05/23 01:09:08;;;;;;;19.92;14.15;;;;;;;;;;2056557;28;20217;-58
2021/05/23 01:10:10;;;;;;;19.75;14.88;;;;;;;;;;2049096;28;20214;-59
2021/05/23 01:11:17;;;;;;;19.02;14.15;;;;;;;;;;2057035;28;20186;-60
2021/05/23 01:12:20;;;;;;;17.98;13.40;;;;;;;;;;2060834;28;20782;-59
2021/05/23 01:13:39;;;;;;;17.35;13.70;;;;;;;;;;2065399;28;20559;-60
2021/05/23 01:14:56;;;;;;;17.08;13.18;;;;;;;;;;2065322;28;20661;-59
2021/05/23 01:15:56;;;;;;;18.05;13.68;;;;;;;;;;2069766;28;20184;-59
2021/05/23 01:16:58;;;;;;;17.58;13.90;;;;;;;;;;2063891;28;20248;-60
2021/05/23 01:18:00;;;;;;;18.67;13.63;;;;;;;;;;2064448;28;20618;-55
2021/05/23 01:19:03;;;;;;;19.08;13.57;;;;;;;;;;2063886;28;20178;-61
2021/05/23 01:20:14;;;;;;;16.20;13.60;;;;;;;;;;2063740;28;20177;-60
2021/05/23 01:21:16;;;;;;;16.48;13.13;;;;;;;;;;2064842;28;20170;-58
2021/05/23 01:22:16;;;;;;;17.77;12.52;;;;;;;;;;2065243;28;20248;-57
2021/05/23 01:23:19;;;;;;;20.17;13.80;;;;;;;;;;2062732;28;20756;-60
2021/05/23 01:24:21;;;;;;;18.25;13.38;;;;;;;;;;2064642;28;20181;-60
2021/05/23 01:25:24;;;;;;;21.50;14.38;;;;;;;;;;2065385;28;20833;-59
2021/05/23 01:26:26;;;;;;;17.15;12.98;;;;;;;;;;2055953;28;20206;-60
2021/05/23 01:27:33;;;;;;;19.02;13.40;;;;;;;;;;2052857;28;20258;-58
2021/05/23 01:28:36;;;;;;;15.00;12.77;;;;;;;;;;2064090;28;20224;-54
2021/05/23 01:29:37;;;;;;;15.65;13.60;;;;;;;;;;2064015;28;20282;-60
2021/05/23 01:30:42;;;;;;;20.85;12.80;;;;;;;;;;2064717;28;20191;-60
2021/05/23 01:31:42;;;;;;;19.75;12.48;;;;;;;;;;2060958;28;20178;-58
2021/05/23 01:32:44;;;;;;;20.15;13.75;;;;;;;;;;2064629;28;20582;-60
2021/05/23 01:33:51;;;;;;;17.73;13.10;;;;;;;;;;2060238;28;20181;-57
2021/05/23 01:34:51;;;;;;;17.02;13.18;;;;;;;;;;2063973;28;20253;-58
2021/05/23 01:35:57;;;;;;;15.00;11.65;;;;;;;;;;2064896;28;20161;-59
2021/05/23 01:36:58;;;;;;;15.80;11.85;;;;;;;;;;2062391;28;20265;-60
2021/05/23 01:38:00;;;;;;;17.67;13.13;;;;;;;;;;2061749;28;20178;-60
2021/05/23 01:39:01;;;;;;;15.63;12.40;;;;;;;;;;2063489;28;20186;-61
2021/05/23 01:40:03;;;;;;;14.15;12.50;;;;;;;;;;2064862;28;20170;-62
2021/05/23 01:41:05;;;;;;;15.60;12.32;;;;;;;;;;2060813;28;20174;-63
2021/05/23 01:42:06;;;;;;;16.88;13.23;;;;;;;;;;2062906;28;20284;-59
2021/05/23 01:43:07;;;;;;;16.83;12.82;;;;;;;;;;2059330;28;20181;-61
2021/05/23 01:44:08;;;;;;;16.33;12.65;;;;;;;;;;2063344;28;20177;-61
2021/05/23 01:45:08;;;;;;;18.10;13.05;;;;;;;;;;2058825;28;20181;-58
2021/05/23 01:46:09;;;;;;;15.75;12.55;;;;;;;;;;2063775;28;20174;-59
2021/05/23 01:47:10;;;;;;;19.33;13.68;;;;;;;;;;2064279;28;20646;-60
2021/05/23 01:48:10;;;;;;;18.83;13.80;;;;;;;;;;2064585;28;20291;-59
2021/05/23 01:49:10;;;;;;;18.83;12.90;;;;;;;;;;2063923;28;20180;-59
2021/05/23 01:50:11;;;;;;;15.98;12.68;;;;;;;;;;2064305;28;20174;-60
2021/05/23 01:51:11;;;;;;;17.88;13.43;;;;;;;;;;2063898;28;20681;-60
2021/05/23 01:52:11;;;;;;;19.20;13.38;;;;;;;;;;2063562;28;20265;-60
2021/05/23 01:53:12;;;;;;;15.07;12.88;;;;;;;;;;2064120;28;20166;-58
2021/05/23 01:54:12;;;;;;;16.45;13.40;;;;;;;;;;2064523;28;20519;-58
2021/05/23 01:55:12;;;;;;;23.80;13.60;;;;;;;;;;2063409;28;20177;-58
2021/05/23 01:56:13;;;;;;;17.50;13.45;;;;;;;;;;2065181;28;20538;-60
2021/05/23 01:57:13;;;;;;;16.40;13.75;;;;;;;;;;2062927;28;20181;-58
2021/05/23 01:58:13;;;;;;;17.98;13.45;;;;;;;;;;2064716;28;20690;-59
2021/05/23 01:59:13;;;;;;;14.50;12.98;;;;;;;;;;2063883;28;20174;-58
2021/05/23 02:00:16;;;;;;;17.77;13.38;;;;;;;;;;2064511;28;20173;-58
2021/05/23 02:01:16;;;;;;;18.15;13.55;;;;;;;;;;2058983;28;20173;-60
2021/05/23 02:02:16;;;;;;;24.05;14.23;;;;;;;;;;2051141;28;20183;-56
2021/05/23 02:03:17;;;;;;;18.33;13.52;;;;;;;;;;2057994;28;20186;-60
2021/05/23 02:04:18;;;;;;;19.60;14.20;;;;;;;;;;2064553;28;20207;-58
2021/05/23 02:05:18;;;;;;;20.13;14.65;;;;;;;;;;2056415;28;20717;-59
2021/05/23 02:06:18;;;;;;;17.35;13.55;;;;;;;;;;2051146;28;20175;-58
2021/05/23 02:07:19;;;;;;;20.45;15.25;;;;;;;;;;2056382;28;20575;-58
2021/05/23 02:08:20;;;;;;;17.58;14.15;;;;;;;;;;2063984;28;20178;-59
2021/05/23 02:09:20;;;;;;;18.60;14.25;;;;;;;;;;2056052;28;20173;-60
2021/05/23 02:10:21;;;;;;;18.55;13.68;;;;;;;;;;2056123;28;20166;-61
2021/05/23 02:11:21;;;;;;;22.02;14.73;;;;;;;;;;2059228;28;20193;-61
2021/05/23 02:12:22;;;;;;;19.00;14.02;;;;;;;;;;2064950;28;20176;-62
2021/05/23 02:13:22;;;;;;;18.33;14.30;;;;;;;;;;2064873;28;20216;-61
2021/05/23 02:14:22;;;;;;;19.77;13.27;;;;;;;;;;2055474;28;20186;-60
2021/05/23 02:15:23;;;;;;;19.30;14.63;;;;;;;;;;2055858;28;20158;-61
2021/05/23 02:16:23;;;;;;;19.08;14.38;;;;;;;;;;2059427;28;20202;-61
2021/05/23 02:17:23;;;;;;;21.58;14.63;;;;;;;;;;2060859;28;20188;-59
2021/05/23 02:18:24;;;;;;;21.70;15.38;;;;;;;;;;2064782;28;20183;-56
2021/05/23 02:19:24;;;;;;;22.98;14.73;;;;;;;;;;2064088;28;20181;-60
2021/05/23 02:20:27;;;;;;;18.63;14.52;;;;;;;;;;2056842;28;20811;-55
2021/05/23 02:21:27;;;;;;;18.50;14.75;;;;;;;;;;2055562;28;20174;-60
2021/05/23 02:22:27;;;;;;;20.05;15.57;;;;;;;;;;2062322;28;20537;-60
2021/05/23 02:23:28;;;;;;;19.23;14.50;;;;;;;;;;2057594;28;20191;-57
2021/05/23 02:24:28;;;;;;;20.67;14.93;;;;;;;;;;2063270;28;20594;-58
2021/05/23 02:25:29;;;;;;;21.27;14.45;;;;;;;;;;2057736;28;20190;-58
2021/05/23 02:26:29;;;;;;;20.77;15.25;;;;;;;;;;2063644;28;20216;-60
2021/05/23 02:27:30;;;;;;;19.48;15.52;;;;;;;;;;2064076;28;20170;-60
2021/05/23 02:28:30;;;;;;;23.80;14.55;;;;;;;;;;2063226;28;20292;-60
2021/05/23 02:29:31;;;;;;;18.00;14.65;;;;;;;;;;2055317;28;20241;-58
2021/05/23 02:30:34;;;;;;;15.70;13.93;;;;;;;;;;2055807;28;20260;-57
2021/05/23 02:31:35;;;;;;;20.48;13.88;;;;;;;;;;2064491;28;20176;-61
2021/05/23 02:32:35;;;;;;;22.50;15.98;;;;;;;;;;2062420;28;20559;-61
2021/05/23 02:33:35;;;;;;;19.77;14.52;;;;;;;;;;2058876;28;20251;-59
2021/05/23 02:34:45;;;;;;;17.48;14.50;;;;;;;;;;2062847;28;20209;-58
2021/05/23 02:35:47;;;;;;;22.15;15.13;;;;;;;;;;2063690;28;20260;-58
2021/05/23 02:36:47;;;;;;;20.15;15.05;;;;;;;;;;2063924;28;20181;-60
2021/05/23 02:37:47;;;;;;;19.83;15.50;;;;;;;;;;2064251;28;20194;-59
2021/05/23 02:38:48;;;;;;;21.80;15.57;;;;;;;;;;2061464;28;20550;-60
2021/05/23 02:39:48;;;;;;;20.45;15.70;;;;;;;;;;2064449;28;20189;-58
2021/05/23 02:40:50;;;;;;;21.38;16.00;;;;;;;;;;2063558;28;20217;-61
2021/05/23 02:41:50;;;;;;;27.48;17.35;;;;;;;;;;2064898;28;20181;-54
2021/05/23 02:42:50;;;;;;;23.30;17.65;;;;;;;;;;2053106;28;20181;-60
2021/05/23 02:43:51;;;;;;;23.65;16.00;;;;;;;;;;2055475;28;20265;-60
2021/05/23 02:44:51;;;;;;;24.65;16.40;;;;;;;;;;2064285;28;20181;-60
2021/05/23 02:45:51;;;;;;;24.50;16.80;;;;;;;;;;2064045;28;20176;-59
2021/05/23 02:46:51;;;;;;;24.98;16.77;;;;;;;;;;2064147;28;20178;-59
2021/05/23 02:47:52;;;;;;;24.38;16.15;;;;;;;;;;2055045;28;20202;-60
2021/05/23 02:48:53;;;;;;;24.35;17.42;;;;;;;;;;2055461;28;20574;-61
2021/05/23 02:49:53;;;;;;;26.92;17.77;;;;;;;;;;2059664;28;20212;-61
2021/05/23 02:50:54;;;;;;;21.80;16.58;;;;;;;;;;2061421;28;20174;-58
2021/05/23 02:51:54;;;;;;;24.77;17.67;;;;;;;;;;2055216;28;20217;-58
2021/05/23 02:52:55;;;;;;;25.38;16.38;;;;;;;;;;2047441;29;20257;-57
2021/05/23 02:53:55;;;;;;;22.00;16.95;;;;;;;;;;2052849;28;20204;-60
2021/05/23 02:54:55;;;;;;;23.73;16.83;;;;;;;;;;2063895;28;20162;-59
2021/05/23 02:55:56;;;;;;;27.10;17.90;;;;;;;;;;2064707;28;20176;-60
2021/05/23 02:56:56;;;;;;;24.95;16.90;;;;;;;;;;2061379;28;20182;-60
2021/05/23 02:57:56;;;;;;;24.90;14.35;;;;;;;;;;2061185;28;20193;-60
2021/05/23 02:58:56;;;;;;;26.67;16.75;;;;;;;;;;2062557;28;20208;-59
2021/05/23 02:59:57;;;;;;;24.23;15.10;;;;;;;;;;2064101;28;20244;-59
2021/05/23 03:00:57;;;;;;;22.67;15.35;;;;;;;;;;2063517;28;20177;-60
2021/05/23 03:01:58;;;;;;;22.83;15.82;;;;;;;;;;2064167;28;20672;-55
2021/05/23 03:02:58;;;;;;;23.17;14.35;;;;;;;;;;2064202;28;20181;-59
2021/05/23 03:03:58;;;;;;;18.85;14.60;;;;;;;;;;2062327;28;20613;-58
2021/05/23 03:04:59;;;;;;;17.88;13.82;;;;;;;;;;2064063;28;20229;-56
2021/05/23 03:05:59;;;;;;;24.92;14.77;;;;;;;;;;2055415;28;20238;-60
2021/05/23 03:06:59;;;;;;;20.38;14.18;;;;;;;;;;2055891;28;20265;-59
2021/05/23 03:08:00;;;;;;;21.60;14.35;;;;;;;;;;2062937;28;20752;-60
2021/05/23 03:09:00;;;;;;;19.30;13.38;;;;;;;;;;2065867;28;20265;-61
2021/05/23 03:10:00;;;;;;;19.27;13.82;;;;;;;;;;2065651;28;20170;-60
2021/05/23 03:11:00;;;;;;;20.73;13.20;;;;;;;;;;2065671;28;20170;-58
2021/05/23 03:12:01;;;;;;;22.00;14.52;;;;;;;;;;2061125;28;20179;-60
2021/05/23 03:13:02;;;;;;;22.77;14.63;;;;;;;;;;2063586;28;20169;-60
2021/05/23 03:14:02;;;;;;;17.75;13.30;;;;;;;;;;2065187;28;20189;-59
2021/05/23 03:15:05;;;;;;;19.85;14.05;;;;;;;;;;2066193;28;20181;-59
2021/05/23 03:16:06;;;;;;;18.48;14.48;;;;;;;;;;2066106;28;20714;-58
2021/05/23 03:17:07;;;;;;;21.88;13.48;;;;;;;;;;2059371;28;20182;-58
2021/05/23 03:18:08;;;;;;;20.17;14.00;;;;;;;;;;2064768;28;20657;-59
2021/05/23 03:19:08;;;;;;;15.70;13.80;;;;;;;;;;2065360;28;20174;-59
2021/05/23 03:20:09;;;;;;;19.80;13.82;;;;;;;;;;2065749;28;20653;-59
2021/05/23 03:21:10;;;;;;;22.10;13.82;;;;;;;;;;2065255;28;20181;-61
2021/05/23 03:22:10;;;;;;;18.48;15.00;;;;;;;;;;2065502;28;20852;-60
2021/05/23 03:23:10;;;;;;;20.85;14.23;;;;;;;;;;2064906;28;20182;-60
2021/05/23 03:24:11;;;;;;;21.17;14.75;;;;;;;;;;2065148;28;20169;-60
2021/05/23 03:25:12;;;;;;;24.17;14.52;;;;;;;;;;2065010;28;20645;-61
2021/05/23 03:26:12;;;;;;;18.85;15.52;;;;;;;;;;2065060;28;20227;-59
2021/05/23 03:27:12;;;;;;;20.27;14.95;;;;;;;;;;2066166;28;20190;-60
2021/05/23 03:28:12;;;;;;;20.23;14.18;;;;;;;;;;2065554;28;20323;-60
2021/05/23 03:29:13;;;;;;;19.33;14.68;;;;;;;;;;2063851;28;20552;-58
2021/05/23 03:30:14;;;;;;;21.27;15.00;;;;;;;;;;2065471;28;20606;-59
2021/05/23 03:31:15;;;;;;;20.70;14.88;;;;;;;;;;2063818;28;20566;-58
2021/05/23 03:32:15;;;;;;;23.58;15.65;;;;;;;;;;2065429;28;20190;-60
2021/05/23 03:33:15;;;;;;;25.02;15.60;;;;;;;;;;2065226;28;20372;-61
2021/05/23 03:34:15;;;;;;;23.98;15.20;;;;;;;;;;2065498;28;20216;-57
2021/05/23 03:35:16;;;;;;;22.48;15.52;;;;;;;;;;2062570;28;20177;-61
2021/05/23 03:36:17;;;;;;;21.25;16.02;;;;;;;;;;2056614;28;20173;-58
2021/05/23 03:37:17;;;;;;;21.63;15.55;;;;;;;;;;2053430;28;20214;-61
2021/05/23 03:38:17;;;;;;;23.95;15.75;;;;;;;;;;2065301;28;20162;-61
2021/05/23 03:39:17;;;;;;;19.38;15.40;;;;;;;;;;2061646;28;20266;-62
2021/05/23 03:40:18;;;;;;;21.65;15.10;;;;;;;;;;2065386;28;20587;-60
2021/05/23 03:41:18;;;;;;;22.70;16.52;;;;;;;;;;2065284;28;20228;-60
2021/05/23 03:42:19;;;;;;;24.83;15.60;;;;;;;;;;2065516;28;20178;-61
2021/05/23 03:43:19;;;;;;;19.80;15.75;;;;;;;;;;2065131;28;20210;-58
2021/05/23 03:44:19;;;;;;;22.77;16.42;;;;;;;;;;2065327;28;20172;-60
2021/05/23 03:45:20;;;;;;;22.52;14.82;;;;;;;;;;2065287;28;20277;-59
2021/05/23 03:46:21;;;;;;;19.33;16.27;;;;;;;;;;2054179;28;20178;-57
2021/05/23 03:47:21;;;;;;;21.67;15.35;;;;;;;;;;2057096;28;20658;-61
2021/05/23 03:48:21;;;;;;;21.35;15.07;;;;;;;;;;2058575;28;20166;-59
2021/05/23 03:49:21;;;;;;;19.60;15.45;;;;;;;;;;2064846;28;20166;-59
2021/05/23 03:50:23;;;;;;;21.23;15.68;;;;;;;;;;2065269;28;20205;-59
2021/05/23 03:51:23;;;;;;;21.42;15.27;;;;;;;;;;2065070;28;20177;-61
2021/05/23 03:52:23;;;;;;;21.42;14.98;;;;;;;;;;2057111;28;20170;-60
2021/05/23 03:53:24;;;;;;;20.42;15.85;;;;;;;;;;2057151;28;20703;-60
2021/05/23 03:54:24;;;;;;;20.98;15.85;;;;;;;;;;2064725;28;20201;-59
2021/05/23 03:55:25;;;;;;;24.02;16.23;;;;;;;;;;2065526;28;20180;-60
2021/05/23 03:56:25;;;;;;;23.63;16.05;;;;;;;;;;2065667;28;20170;-60
2021/05/23 03:57:25;;;;;;;24.13;16.55;;;;;;;;;;2056635;28;20173;-57
2021/05/23 03:58:26;;;;;;;22.67;16.35;;;;;;;;;;2048947;29;20293;-61
2021/05/23 03:59:26;;;;;;;25.90;16.33;;;;;;;;;;2049635;28;20163;-58
2021/05/23 04:00:27;;;;;;;19.42;16.10;;;;;;;;;;2065105;28;20579;-58
2021/05/23 04:01:27;;;;;;;24.38;16.90;;;;;;;;;;2063893;28;20174;-57
2021/05/23 04:02:27;;;;;;;23.13;16.08;;;;;;;;;;2058507;28;20523;-59
2021/05/23 04:03:29;;;;;;;20.83;15.38;;;;;;;;;;2058613;28;20501;-59
2021/05/23 04:04:45;;;;;;;28.25;16.95;;;;;;;;;;2065642;28;20597;-54
2021/05/23 04:05:46;;;;;;;29.30;16.73;;;;;;;;;;2064687;28;20181;-57
2021/05/23 04:06:46;;;;;;;24.30;16.98;;;;;;;;;;2061837;28;20210;-59
2021/05/23 04:07:47;;;;;;;22.80;17.02;;;;;;;;;;2061962;28;20225;-56
2021/05/23 04:08:47;;;;;;;23.50;16.15;;;;;;;;;;2065668;28;20185;-56
2021/05/23 04:09:48;;;;;;;27.48;18.45;;;;;;;;;;2061122;28;20550;-57
2021/05/23 04:10:58;;;;;;;26.80;18.95;;;;;;;;;;2065628;28;20178;-59
2021/05/23 04:11:58;;;;;;;27.20;17.63;;;;;;;;;;2065068;28;20165;-59
2021/05/23 04:13:00;;;;;;;23.02;17.45;;;;;;;;;;2066614;28;20213;-57
2021/05/23 04:14:01;;;;;;;24.63;17.15;;;;;;;;;;2066345;28;20173;-59
2021/05/23 04:15:02;;;;;;;25.50;17.67;;;;;;;;;;2064895;28;20166;-56
2021/05/23 04:16:02;;;;;;;21.52;17.60;;;;;;;;;;2063662;28;20713;-60
2021/05/23 04:17:02;;;;;;;25.27;17.25;;;;;;;;;;2064494;28;20196;-59
2021/05/23 04:18:03;;;;;;;24.20;17.02;;;;;;;;;;2065038;28;20178;-58
2021/05/23 04:19:03;;;;;;;20.17;16.63;;;;;;;;;;2064566;28;20232;-57
2021/05/23 04:20:05;;;;;;;26.73;16.52;;;;;;;;;;2065516;28;20546;-60
2021/05/23 04:21:05;;;;;;;25.92;18.08;;;;;;;;;;2064728;28;20205;-60
2021/05/23 04:22:05;;;;;;;27.65;17.73;;;;;;;;;;2058488;28;20635;-61
2021/05/23 04:23:06;;;;;;;23.02;17.02;;;;;;;;;;2055096;28;20539;-60
2021/05/23 04:24:06;;;;;;;24.77;17.98;;;;;;;;;;2065943;28;20212;-56
2021/05/23 04:25:09;;;;;;;28.05;19.23;;;;;;;;;;2065027;28;22354;-59
2021/05/23 04:26:09;;;;;;;22.77;17.08;;;;;;;;;;2065579;28;20264;-59
2021/05/23 04:27:09;;;;;;;23.50;17.17;;;;;;;;;;2065027;28;20641;-59
2021/05/23 04:28:10;;;;;;;25.75;17.27;;;;;;;;;;2065595;28;20201;-58
2021/05/23 04:29:10;;;;;;;24.67;17.40;;;;;;;;;;2061654;28;20182;-56
2021/05/23 04:30:11;;;;;;;26.50;18.13;;;;;;;;;;2064829;28;20244;-57
2021/05/23 04:31:11;;;;;;;22.73;17.30;;;;;;;;;;2052685;28;20167;-60
2021/05/23 04:32:11;;;;;;;25.38;17.55;;;;;;;;;;2056519;28;20170;-58
2021/05/23 04:33:12;;;;;;;25.65;16.90;;;;;;;;;;2064349;28;20682;-58
2021/05/23 04:34:12;;;;;;;25.65;17.67;;;;;;;;;;2065697;28;20174;-59
2021/05/23 04:35:14;;;;;;;24.67;17.55;;;;;;;;;;2060743;28;20589;-59
2021/05/23 04:36:14;;;;;;;24.95;18.02;;;;;;;;;;2064695;28;20178;-55
2021/05/23 04:37:15;;;;;;;22.88;17.95;;;;;;;;;;2064995;28;20592;-59
2021/05/23 04:38:16;;;;;;;23.73;16.90;;;;;;;;;;2064964;28;20170;-58
2021/05/23 04:39:16;;;;;;;23.58;17.92;;;;;;;;;;2062449;28;20181;-60
2021/05/23 04:40:17;;;;;;;24.77;17.42;;;;;;;;;;2056881;28;20174;-58
2021/05/23 04:41:18;;;;;;;21.17;16.92;;;;;;;;;;2056343;28;20261;-59
2021/05/23 04:42:18;;;;;;;22.05;17.30;;;;;;;;;;2065016;28;20641;-59
2021/05/23 04:43:18;;;;;;;25.27;17.75;;;;;;;;;;2064617;28;20589;-58
2021/05/23 04:44:18;;;;;;;22.08;17.67;;;;;;;;;;2065141;28;20184;-58
2021/05/23 04:45:19;;;;;;;25.08;18.08;;;;;;;;;;2065444;28;20173;-57
2021/05/23 04:46:20;;;;;;;27.67;17.90;;;;;;;;;;2056307;28;20685;-58
2021/05/23 04:47:21;;;;;;;26.65;17.35;;;;;;;;;;2056900;28;20327;-59
2021/05/23 04:48:21;;;;;;;23.98;16.90;;;;;;;;;;2049527;28;20170;-59
2021/05/23 04:49:21;;;;;;;29.05;17.13;;;;;;;;;;2056846;28;20182;-58
2021/05/23 04:50:21;;;;;;;20.65;16.15;;;;;;;;;;2064692;28;20228;-61
2021/05/23 04:51:22;;;;;;;21.30;15.50;;;;;;;;;;2065575;28;20713;-60
2021/05/23 04:52:22;;;;;;;23.70;16.30;;;;;;;;;;2064815;28;20192;-60
2021/05/23 04:53:22;;;;;;;20.98;16.00;;;;;;;;;;2065615;28;20721;-60
2021/05/23 04:54:22;;;;;;;23.30;15.15;;;;;;;;;;2057234;28;20176;-60
2021/05/23 04:55:23;;;;;;;19.25;15.07;;;;;;;;;;2059159;28;20602;-58
2021/05/23 04:56:23;;;;;;;25.58;15.85;;;;;;;;;;2058252;28;20268;-59
2021/05/23 04:57:23;;;;;;;19.75;15.60;;;;;;;;;;2065585;28;20172;-61
2021/05/23 04:58:24;;;;;;;18.38;15.73;;;;;;;;;;2064777;28;20200;-60
2021/05/23 04:59:24;;;;;;;20.17;16.10;;;;;;;;;;2055740;28;20167;-60
2021/05/23 05:00:24;;;;;;;21.90;15.70;;;;;;;;;;2053161;28;20190;-59
2021/05/23 05:01:24;;;;;;;21.50;15.75;;;;;;;;;;2047933;29;20179;-59
2021/05/23 05:02:25;;;;;;;19.73;15.30;;;;;;;;;;2042120;29;20243;-59
2021/05/23 05:03:25;;;;;;;17.90;15.15;;;;;;;;;;2063687;28;20212;-60
2021/05/23 05:04:25;;;;;;;18.15;14.98;;;;;;;;;;2065104;28;20178;-61
2021/05/23 05:05:26;;;;;;;19.17;14.63;;;;;;;;;;2064489;28;20200;-60
2021/05/23 05:06:26;;;;;;;17.25;14.00;;;;;;;;;;2058458;28;20247;-60
2021/05/23 05:07:26;;;;;;;21.05;13.57;;;;;;;;;;2064295;28;20162;-60
2021/05/23 05:08:27;;;;;;;16.88;13.75;;;;;;;;;;2064969;28;20196;-60
2021/05/23 05:09:27;;;;;;;21.70;13.75;;;;;;;;;;2063454;28;20170;-60
2021/05/23 05:10:27;;;;;;;20.13;13.65;;;;;;;;;;2057718;28;20877;-59
2021/05/23 05:11:28;;;;;;;16.80;13.20;;;;;;;;;;2062588;28;20220;-61
2021/05/23 05:12:28;;;;;;;16.90;12.85;;;;;;;;;;2058349;28;20166;-58
2021/05/23 05:13:28;;;;;;;19.83;13.38;;;;;;;;;;2056023;28;20310;-60
2021/05/23 05:14:28;;;;;;;17.95;13.20;;;;;;;;;;2056097;28;20178;-60
2021/05/23 05:15:29;;;;;;;15.90;12.98;;;;;;;;;;2064347;28;20184;-59
2021/05/23 05:16:29;;;;;;;17.88;13.55;;;;;;;;;;2063807;28;20181;-60
2021/05/23 05:17:29;;;;;;;21.55;13.15;;;;;;;;;;2063064;28;20186;-59
2021/05/23 05:18:30;;;;;;;20.48;13.95;;;;;;;;;;2055794;28;20178;-60
2021/05/23 05:19:30;;;;;;;18.23;13.05;;;;;;;;;;2054534;28;20272;-61
2021/05/23 05:20:30;;;;;;;18.08;13.05;;;;;;;;;;2064293;28;20166;-59
2021/05/23 05:21:31;;;;;;;17.05;12.73;;;;;;;;;;2064610;28;20174;-60
2021/05/23 05:22:31;;;;;;;20.77;13.10;;;;;;;;;;2065003;28;20224;-58
2021/05/23 05:23:32;;;;;;;15.57;13.20;;;;;;;;;;2061280;28;20205;-59
2021/05/23 05:24:32;;;;;;;18.33;13.27;;;;;;;;;;2058881;28;20651;-60
2021/05/23 05:25:32;;;;;;;20.77;13.00;;;;;;;;;;2060556;28;20181;-61
2021/05/23 05:26:33;;;;;;;21.27;13.35;;;;;;;;;;2058923;28;20583;-61
2021/05/23 05:27:33;;;;;;;16.83;12.30;;;;;;;;;;2063846;28;20217;-59
2021/05/23 05:28:34;;;;;;;16.55;12.32;;;;;;;;;;2055892;28;20166;-57
2021/05/23 05:29:34;;;;;;;16.77;12.15;;;;;;;;;;2052565;28;20218;-59
2021/05/23 05:30:34;;;;;;;15.80;12.63;;;;;;;;;;2055846;28;20252;-60
2021/05/23 05:31:34;;;;;;;17.60;13.13;;;;;;;;;;2056154;28;20186;-58
2021/05/23 05:32:35;;;;;;;21.10;12.48;;;;;;;;;;2063432;28;20189;-59
2021/05/23 05:33:35;;;;;;;21.77;13.18;;;;;;;;;;2060965;28;20197;-59
2021/05/23 05:34:35;;;;;;;17.58;12.80;;;;;;;;;;2064541;28;20181;-59
2021/05/23 05:35:35;;;;;;;17.92;12.60;;;;;;;;;;2064330;28;20182;-56
2021/05/23 05:36:36;;;;;;;17.50;12.00;;;;;;;;;;2064459;28;20169;-56
2021/05/23 05:37:36;;;;;;;20.13;12.85;;;;;;;;;;2060566;28;20201;-57
2021/05/23 05:38:36;;;;;;;15.50;11.82;;;;;;;;;;2064478;28;20181;-61
2021/05/23 05:39:37;;;;;;;14.95;11.25;;;;;;;;;;2064034;28;20197;-56
2021/05/23 05:40:37;;;;;;;19.15;12.65;;;;;;;;;;2064585;28;20193;-59
2021/05/23 05:41:37;;;;;;;17.05;11.57;;;;;;;;;;2051127;28;20186;-58
2021/05/23 05:42:38;;;;;;;13.98;11.50;;;;;;;;;;2055950;28;20166;-56
2021/05/23 05:43:38;;;;;;;17.60;11.85;;;;;;;;;;2077354;23;20276;-59
2021/05/23 05:44:38;;;;;;;19.65;11.65;;;;;;;;;;2053147;28;20194;-61
2021/05/23 05:45:39;;;;;;;19.90;11.52;;;;;;;;;;2048203;28;20625;-59
2021/05/23 05:46:39;;;;;;;15.82;11.27;;;;;;;;;;2048292;28;20262;-61
2021/05/23 05:47:39;;;;;;;12.43;10.80;;;;;;;;;;2051776;28;20217;-61
2021/05/23 05:48:40;;;;;;;13.85;10.85;;;;;;;;;;2049342;28;20635;-61
2021/05/23 05:49:40;;;;;;;14.70;10.60;;;;;;;;;;2039938;28;20183;-59
2021/05/23 05:50:40;;;;;;;16.30;11.43;;;;;;;;;;2048042;28;20217;-60
2021/05/23 05:51:41;;;;;;;15.77;11.13;;;;;;;;;;2056765;28;20643;-60
2021/05/23 05:52:41;;;;;;;19.77;11.15;;;;;;;;;;2057881;28;20190;-59
2021/05/23 05:53:41;;;;;;;16.67;11.13;;;;;;;;;;2052046;28;20221;-60